Time;durP1;ratioP1;P1;durP2;ratioP2;P2;SDS_P1;SDS_P2;PMS_P1;PMS_P2;Temp;Humidity;BMP_temperature;BMP_pressure;BME280_temperature;BME280_humidity;BME280_pressure;Samples;Min_cycle;Max_cycle;Signal;HPM_P1;HPM_P2
2022/11/25 00:01:27;;;;;;;;;15.25;13.75;;;;;0.99;91.95;98380.25;4902649;28;103456;-73
2022/11/25 00:03:55;;;;;;;;;13.75;12.25;;;;;0.96;92.63;98380.53;4903630;28;101737;-72
2022/11/25 00:06:25;;;;;;;;;23.67;17.00;;;;;0.98;92.32;98385.72;4907760;28;102795;-73
2022/11/25 00:08:57;;;;;;;;;18.00;14.67;;;;;0.99;92.49;98387.41;4905748;28;102466;-74
2022/11/25 00:11:24;;;;;;;;;13.00;10.00;;;;;0.95;93.12;98383.34;4900196;28;109899;-72
2022/11/25 00:13:51;;;;;;;;;11.00;9.50;;;;;0.99;92.83;98390.06;4904123;28;102112;-73
2022/11/25 00:16:21;;;;;;;;;7.25;6.25;;;;;1.02;93.44;98390.63;4904034;28;101893;-73
2022/11/25 00:18:53;;;;;;;;;17.00;8.33;;;;;1.04;93.64;98393.94;4905655;28;101656;-73
2022/11/25 00:21:22;;;;;;;;;10.00;7.25;;;;;0.99;93.69;98377.56;4902273;28;107792;-73
2022/11/25 00:24:00;;;;;;;;;10.25;8.75;;;;;1.10;93.66;98400.53;4908684;28;101969;-73
2022/11/25 00:26:31;;;;;;;;;13.33;13.33;;;;;1.10;94.45;98393.38;4900695;28;101699;-73
2022/11/25 00:29:01;;;;;;;;;10.25;9.75;;;;;1.13;94.32;98394.91;4909104;28;101959;-73
2022/11/25 00:31:34;;;;;;;;;6.75;6.50;;;;;1.13;94.29;98398.41;4905711;28;103363;-73
2022/11/25 00:34:02;;;;;;;;;13.33;10.00;;;;;1.14;93.78;98405.41;4908705;28;102914;-73
2022/11/25 00:36:34;;;;;;;;;10.25;8.00;;;;;1.13;93.71;98400.22;4902593;28;101724;-73
2022/11/25 00:39:10;;;;;;;;;12.25;10.50;;;;;1.16;94.39;98408.78;4904328;28;103302;-73
2022/11/25 00:44:40;;;;;;;;;13.50;12.75;;;;;1.18;94.15;98409.44;4873189;28;102083;-73
2022/11/25 00:47:14;;;;;;;;;18.00;17.00;;;;;1.19;93.73;98407.63;4894410;28;101890;-73
2022/11/25 00:49:45;;;;;;;;;15.00;13.00;;;;;1.18;93.85;98416.59;4901733;28;101985;-73
2022/11/25 00:52:16;;;;;;;;;12.50;10.75;;;;;1.17;93.65;98414.94;4903409;28;103482;-73
2022/11/25 00:54:44;;;;;;;;;7.75;7.50;;;;;1.17;93.76;98420.28;4910869;28;106042;-73
2022/11/25 00:57:12;;;;;;;;;15.25;10.25;;;;;1.15;93.91;98412.41;4899764;28;102607;-72
2022/11/25 00:59:39;;;;;;;;;9.75;6.00;;;;;1.18;93.85;98421.91;4906013;28;102055;-73
2022/11/25 01:02:07;;;;;;;;;10.25;10.25;;;;;1.16;94.00;98427.41;4905098;28;103356;-73
2022/11/25 01:04:34;;;;;;;;;13.00;11.00;;;;;1.15;93.46;98422.22;4913978;28;102065;-73
2022/11/25 01:07:01;;;;;;;;;9.50;7.25;;;;;1.15;93.58;98424.88;4902963;28;101893;-73
2022/11/25 01:09:29;;;;;;;;;15.50;11.25;;;;;1.15;93.34;98427.56;4903499;28;101611;-73
2022/11/25 01:11:57;;;;;;;;;9.50;8.50;;;;;1.04;93.47;98409.09;4901443;28;103560;-74
2022/11/25 01:14:24;;;;;;;;;9.50;9.25;;;;;1.16;93.61;98418.59;4904696;28;101787;-72
2022/11/25 01:16:51;;;;;;;;;9.00;9.00;;;;;1.17;93.41;98420.28;4925658;28;101902;-74
2022/11/25 01:19:19;;;;;;;;;7.00;5.25;;;;;1.16;93.19;98426.56;4902295;28;102957;-74
2022/11/25 01:21:46;;;;;;;;;6.00;4.00;;;;;1.11;93.13;98419.03;4902633;28;104478;-73
2022/11/25 01:24:14;;;;;;;;;8.00;5.25;;;;;0.89;93.01;98374.97;4904511;28;102875;-74
2022/11/25 01:26:42;;;;;;;;;11.67;10.33;;;;;1.16;92.84;98419.44;4910121;28;102913;-74
2022/11/25 01:29:15;;;;;;;;;17.67;15.33;;;;;1.15;92.97;98419.56;4906330;28;102222;-73
2022/11/25 01:31:43;;;;;;;;;11.50;10.75;;;;;1.15;92.66;98416.91;4904720;28;103443;-74
2022/11/25 01:34:12;;;;;;;;;6.75;6.50;;;;;1.13;92.71;98422.38;4902654;28;102500;-74
2022/11/25 01:36:39;;;;;;;;;9.75;6.75;;;;;1.08;92.80;98405.97;4899260;28;101869;-74
2022/11/25 01:39:06;;;;;;;;;9.50;8.00;;;;;1.15;93.29;98409.75;4901836;28;101974;-74
2022/11/25 01:41:34;;;;;;;;;9.75;8.75;;;;;1.17;92.80;98414.94;4899274;28;103368;-74
2022/11/25 01:44:26;;;;;;;;;6.75;5.00;;;;;1.17;93.25;98414.94;4905332;28;101911;-74
2022/11/25 01:46:58;;;;;;;;;5.75;4.25;;;;;1.18;93.19;98411.28;4896176;28;102974;-72
2022/11/25 01:49:58;;;;;;;;;4.00;2.50;;;;;1.14;92.77;98402.75;4912188;28;101582;-74
2022/11/25 01:52:34;;;;;;;;;13.00;12.00;;;;;1.18;92.79;98406.78;4901930;28;108153;-73
2022/11/25 01:55:08;;;;;;;;;14.67;12.67;;;;;1.18;92.93;98408.59;4897903;28;102130;-74
2022/11/25 01:57:52;;;;;;;;;16.00;16.00;;;;;1.18;93.03;98404.13;4899797;28;101514;-73
2022/11/25 02:00:20;;;;;;;;;16.67;12.00;;;;;1.19;93.10;98405.81;4902135;28;102564;-74
2022/11/25 02:02:49;;;;;;;;;8.50;5.50;;;;;1.18;92.73;98400.63;4903374;28;103618;-73
2022/11/25 02:05:29;;;;;;;;;8.00;5.50;;;;;1.18;93.13;98401.47;4894433;28;102030;-73
2022/11/25 02:08:11;;;;;;;;;14.00;11.33;;;;;1.21;93.21;98405.66;4899093;28;101837;-74
2022/11/25 02:10:56;;;;;;;;;18.00;14.00;;;;;1.21;92.45;98400.34;4900617;28;101775;-74
2022/11/25 02:13:41;;;;;;;;;19.33;16.00;;;;;1.15;93.09;98390.28;4908619;28;107313;-73
2022/11/25 02:16:24;;;;;;;;;17.00;15.00;;;;;1.24;92.87;98410.69;4905918;28;101809;-73
2022/11/25 02:19:21;;;;;;;;;19.33;17.33;;;;;1.25;92.50;98415.88;4900139;28;103170;-73
2022/11/25 02:22:15;;;;;;;;;15.33;14.00;;;;;1.24;92.96;98405.38;4902480;28;102116;-73
2022/11/25 02:25:09;;;;;;;;;8.00;6.00;;;;;1.24;92.94;98405.38;4897582;28;107310;-74
2022/11/25 02:28:03;;;;;;;;;16.67;14.33;;;;;1.28;93.02;98412.91;4901356;28;103408;-73
2022/11/25 02:30:37;;;;;;;;;9.75;6.25;;;;;1.29;93.01;98406.59;4900163;28;101783;-73
2022/11/25 02:33:05;;;;;;;;;5.25;5.25;;;;;1.31;92.89;98423.25;4900407;28;101993;-73
2022/11/25 02:35:34;;;;;;;;;18.33;15.67;;;;;1.32;93.26;98413.44;4910989;28;103526;-74
2022/11/25 02:38:19;;;;;;;;;11.50;8.25;;;;;1.29;92.82;98408.44;4904684;28;101631;-74
2022/11/25 02:40:47;;;;;;;;;22.00;14.33;;;;;1.17;92.42;98388.31;4902051;28;101817;-73
2022/11/25 02:43:16;;;;;;;;;15.33;14.00;;;;;1.32;93.08;98416.97;4900348;28;102819;-73
2022/11/25 02:45:55;;;;;;;;;15.33;14.00;;;;;1.34;93.14;98419.47;4901159;28;103316;-73
2022/11/25 02:48:23;;;;;;;;;6.75;5.00;;;;;1.35;92.80;98419.31;4903799;28;103173;-73
2022/11/25 02:51:15;;;;;;;;;16.25;13.75;;;;;1.37;92.61;98431.66;4899290;28;102522;-73
2022/11/25 02:53:42;;;;;;;;;9.00;6.67;;;;;1.38;92.31;98418.19;4916507;28;101832;-73
2022/11/25 02:56:11;;;;;;;;;18.00;17.00;;;;;1.37;92.83;98421.00;4906084;28;103604;-74
2022/11/25 02:58:38;;;;;;;;;19.25;14.00;;;;;1.41;92.58;98427.72;4907554;28;101605;-73
2022/11/25 03:01:06;;;;;;;;;14.00;12.33;;;;;1.40;92.91;98426.88;4895504;28;102201;-73
2022/11/25 03:03:33;;;;;;;;;17.67;17.00;;;;;1.40;92.69;98426.06;4904095;28;103307;-73
2022/11/25 03:06:00;;;;;;;;;5.50;5.50;;;;;1.40;93.18;98426.88;4916758;28;103531;-73
2022/11/25 03:08:28;;;;;;;;;25.00;21.33;;;;;1.44;92.68;98438.91;4903439;28;102978;-73
2022/11/25 03:10:54;;;;;;;;;13.00;12.00;;;;;1.45;92.42;98435.25;4901842;28;101880;-74
2022/11/25 03:13:22;;;;;;;;;13.75;13.75;;;;;1.41;92.55;98419.72;4905622;28;101913;-73
2022/11/25 03:15:49;;;;;;;;;17.00;15.00;;;;;1.45;92.35;98429.94;4904415;28;103661;-73
2022/11/25 03:18:15;;;;;;;;;11.25;7.25;;;;;1.44;92.21;98425.56;4904514;28;101792;-73
2022/11/25 03:20:42;;;;;;;;;21.67;20.00;;;;;1.45;91.76;98434.41;4911366;28;101760;-73
2022/11/25 03:23:09;;;;;;;;;18.00;16.67;;;;;1.33;92.34;98412.47;4910746;28;101736;-73
2022/11/25 03:25:36;;;;;;;;;22.00;17.67;;;;;1.45;92.20;98437.06;4911046;28;103323;-73
2022/11/25 03:28:03;;;;;;;;;17.33;16.00;;;;;1.43;92.32;98431.91;4912124;28;101716;-73
2022/11/25 03:30:30;;;;;;;;;17.50;12.25;;;;;1.43;92.03;98431.06;4900373;28;101602;-73
2022/11/25 03:32:57;;;;;;;;;19.00;18.00;;;;;1.46;92.55;98436.94;4908683;28;102025;-73
2022/11/25 03:35:25;;;;;;;;;22.33;21.00;;;;;1.48;92.06;98437.66;4916453;28;103534;-73
2022/11/25 03:37:52;;;;;;;;;18.33;15.00;;;;;1.46;92.61;98436.94;4906484;28;103102;-73
2022/11/25 03:40:19;;;;;;;;;8.75;7.00;;;;;1.50;92.90;98450.78;4906702;28;101742;-73
2022/11/25 03:42:46;;;;;;;;;9.75;6.00;;;;;1.49;92.65;98446.44;4904762;28;102690;-73
2022/11/25 03:45:14;;;;;;;;;19.00;15.00;;;;;1.52;92.30;98452.34;4908670;28;103378;-74
2022/11/25 03:47:43;;;;;;;;;22.33;19.33;;;;;1.56;93.87;98459.06;4905309;28;101724;-73
2022/11/25 03:50:12;;;;;;;;;11.25;8.25;;;;;1.57;92.96;98455.41;4903586;28;101730;-73
2022/11/25 03:52:39;;;;;;;;;20.75;17.50;;;;;1.60;93.31;98447.09;4908496;28;102177;-73
2022/11/25 03:55:07;;;;;;;;;17.00;15.50;;;;;1.64;93.71;98464.47;4921585;28;103415;-73
2022/11/25 03:57:34;;;;;;;;;24.67;20.33;;;;;1.65;93.59;98452.84;4911374;28;103054;-73
2022/11/25 04:00:01;;;;;;;;;6.75;2.25;;;;;1.65;92.39;98457.31;4909195;28;101729;-73
2022/11/25 04:02:28;;;;;;;;;15.00;13.50;;;;;1.65;93.46;98455.50;4907254;28;102850;-72
2022/11/25 04:04:56;;;;;;;;;12.50;10.50;;;;;1.69;93.44;98453.38;4907669;28;103645;-73
2022/11/25 04:07:22;;;;;;;;;49.33;39.00;;;;;1.63;92.94;98456.63;4901549;28;102084;-73
2022/11/25 04:09:50;;;;;;;;;34.33;25.00;;;;;1.68;93.57;98457.84;4906781;28;101738;-74
2022/11/25 04:15:03;;;;;;;;;23.67;22.00;;;;;1.72;93.42;98464.56;4905313;28;111241;-74
2022/11/25 04:17:30;;;;;;;;;25.00;19.33;;;;;1.70;93.51;98461.22;4898262;28;103136;-73
2022/11/25 04:19:57;;;;;;;;;20.00;17.50;;;;;1.74;93.72;98454.59;4903678;28;102267;-73
2022/11/25 04:22:24;;;;;;;;;15.33;13.33;;;;;1.75;92.53;98456.28;4912224;28;102688;-73
2022/11/25 04:24:51;;;;;;;;;10.75;10.50;;;;;1.76;93.46;98454.44;4909295;28;103416;-73
2022/11/25 04:27:18;;;;;;;;;22.00;15.00;;;;;1.74;93.03;98451.09;4910292;28;102162;-73
2022/11/25 04:29:46;;;;;;;;;10.50;9.00;;;;;1.72;92.31;98456.56;4903977;28;102883;-72
2022/11/25 04:32:13;;;;;;;;;17.75;13.75;;;;;1.69;93.55;98458.69;4905519;28;101844;-72
2022/11/25 04:34:40;;;;;;;;;15.25;13.25;;;;;1.73;93.22;98470.72;4906996;28;103371;-73
2022/11/25 04:37:07;;;;;;;;;17.25;13.00;;;;;1.73;92.87;98466.25;4900185;28;108851;-72
2022/11/25 04:39:34;;;;;;;;;12.75;10.50;;;;;1.71;92.53;98467.41;4904233;28;101981;-73
2022/11/25 04:44:47;;;;;;;;;22.33;17.33;;;;;1.71;93.17;98473.53;4903403;28;103622;-73
2022/11/25 04:47:34;;;;;;;;;15.75;13.75;;;;;1.66;92.54;98467.84;4905115;28;101562;-73
2022/11/25 04:50:03;;;;;;;;;5.50;5.50;;;;;1.70;93.64;98479.88;4910175;28;101714;-73
2022/11/25 04:52:30;;;;;;;;;10.50;7.00;;;;;1.72;92.97;98485.88;4907755;28;102136;-73
2022/11/25 04:54:57;;;;;;;;;10.25;10.25;;;;;1.73;93.00;98476.91;4904108;28;103509;-73
2022/11/25 04:57:24;;;;;;;;;10.00;6.00;;;;;1.75;92.78;98479.44;4905997;28;103088;-73
2022/11/25 04:59:51;;;;;;;;;10.75;10.75;;;;;1.76;93.81;98476.59;4904623;28;101740;-73
2022/11/25 05:02:21;;;;;;;;;16.25;12.00;;;;;1.80;93.45;98477.16;4902345;28;101862;-73
2022/11/25 05:04:49;;;;;;;;;15.00;14.50;;;;;1.82;92.66;98485.84;4903019;28;103535;-73
2022/11/25 05:07:18;;;;;;;;;15.50;14.00;;;;;1.57;93.12;98434.09;4893707;28;103285;-73
2022/11/25 05:09:46;;;;;;;;;21.67;18.00;;;;;1.87;93.35;98488.91;4904894;28;101778;-73
2022/11/25 05:12:16;;;;;;;;;19.00;15.00;;;;;1.90;94.04;98493.06;4904661;28;101968;-73
2022/11/25 05:14:44;;;;;;;;;17.75;12.25;;;;;1.90;93.09;98495.75;4899403;28;103903;-74
2022/11/25 05:17:17;;;;;;;;;8.50;8.50;;;;;1.91;92.76;98497.44;4905991;28;102386;-74
2022/11/25 05:19:44;;;;;;;;;18.75;15.00;;;;;1.92;93.04;98502.63;4901374;28;101666;-74
2022/11/25 05:22:13;;;;;;;;;9.50;8.25;;;;;1.94;92.82;98505.97;4902846;28;101942;-74
2022/11/25 05:24:40;;;;;;;;;17.75;16.25;;;;;1.96;93.47;98511.16;4905480;28;103409;-73
2022/11/25 05:27:08;;;;;;;;;11.00;7.25;;;;;1.98;93.25;98511.84;4903239;28;103398;-73
2022/11/25 05:29:36;;;;;;;;;19.25;18.25;;;;;1.99;93.45;98508.19;4901015;28;102000;-74
2022/11/25 05:32:05;;;;;;;;;27.33;23.00;;;;;1.95;93.11;98501.47;4902872;28;101793;-73
2022/11/25 05:34:32;;;;;;;;;21.00;21.00;;;;;1.95;93.34;98506.81;4909060;28;104982;-73
2022/11/25 05:36:59;;;;;;;;;27.67;23.67;;;;;1.99;93.34;98510.84;4897573;28;101814;-72
2022/11/25 05:39:27;;;;;;;;;14.00;11.75;;;;;2.00;94.03;98517.88;4907508;28;101617;-71
2022/11/25 05:41:54;;;;;;;;;14.25;8.50;;;;;2.02;94.11;98518.56;4905214;28;102840;-73
2022/11/25 05:44:21;;;;;;;;;14.00;11.00;;;;;2.03;93.55;98520.22;4907246;28;103378;-72
2022/11/25 05:46:49;;;;;;;;;9.00;8.00;;;;;2.06;94.37;98514.59;4902897;28;101894;-72
2022/11/25 05:49:17;;;;;;;;;13.25;9.00;;;;;2.05;93.48;98524.44;4896301;28;101988;-73
2022/11/25 05:51:45;;;;;;;;;20.33;16.67;;;;;2.07;94.30;98516.28;4904641;28;101552;-72
2022/11/25 05:54:12;;;;;;;;;18.00;14.75;;;;;2.03;93.48;98517.56;4901707;28;103484;-73
2022/11/25 05:56:40;;;;;;;;;29.33;28.00;;;;;1.99;93.95;98510.84;4899489;28;101892;-73
2022/11/25 05:59:07;;;;;;;;;33.67;26.67;;;;;2.07;94.33;98527.78;4906962;28;101706;-73
2022/11/25 06:01:34;;;;;;;;;39.33;30.33;;;;;2.08;93.17;98526.78;4903601;28;101791;-73
2022/11/25 06:04:02;;;;;;;;;34.00;30.33;;;;;2.09;93.60;98527.63;4902229;28;103388;-73
2022/11/25 06:06:29;;;;;;;;;36.00;32.00;;;;;2.10;93.62;98530.16;4902338;28;102216;-74
2022/11/25 06:08:56;;;;;;;;;23.00;22.00;;;;;2.09;93.28;98531.16;4901857;28;102825;-74
2022/11/25 06:11:24;;;;;;;;;34.67;25.33;;;;;2.04;93.46;98516.56;4906026;28;101751;-74
2022/11/25 06:13:51;;;;;;;;;35.00;28.67;;;;;2.06;92.93;98522.59;4901138;28;103554;-74
2022/11/25 06:16:21;;;;;;;;;19.50;14.75;;;;;2.12;92.77;98540.66;4908583;28;101710;-74
2022/11/25 06:18:49;;;;;;;;;18.25;13.25;;;;;2.08;93.26;98531.28;4901940;28;101683;-73
2022/11/25 06:21:16;;;;;;;;;26.33;22.00;;;;;2.10;92.90;98546.16;4906381;28;101638;-74
2022/11/25 06:23:44;;;;;;;;;48.33;40.00;;;;;2.01;93.51;98532.88;4901964;28;103374;-74
2022/11/25 06:26:13;;;;;;;;;51.67;42.00;;;;;2.08;94.37;98544.63;4903657;28;101931;-74
2022/11/25 06:28:40;;;;;;;;;55.00;43.67;;;;;2.10;94.01;98540.00;4899098;28;102090;-73
2022/11/25 06:31:11;;;;;;;;;34.67;33.00;;;;;2.14;94.27;98544.03;4905515;28;101656;-73
2022/11/25 06:33:38;;;;;;;;;50.00;36.67;;;;;2.16;93.40;98542.06;4900861;28;103536;-73
2022/11/25 06:36:07;;;;;;;;;19.25;15.50;;;;;2.17;93.95;98547.22;4902292;28;102544;-73
2022/11/25 06:38:35;;;;;;;;;17.75;15.25;;;;;2.19;93.52;98549.75;4896917;28;102498;-73
2022/11/25 06:41:03;;;;;;;;;33.33;28.00;;;;;2.23;92.93;98548.47;4898584;28;101962;-73
2022/11/25 06:43:31;;;;;;;;;27.67;23.67;;;;;2.24;92.64;98552.81;4919526;28;103366;-72
2022/11/25 06:46:03;;;;;;;;;27.00;22.00;;;;;2.27;92.51;98557.00;4902341;28;101933;-73
2022/11/25 06:48:31;;;;;;;;;28.67;24.67;;;;;2.27;93.09;98557.00;4898493;28;101782;-72
2022/11/25 06:51:00;;;;;;;;;23.50;22.75;;;;;2.29;92.79;98549.69;4909627;28;101807;-72
2022/11/25 06:53:27;;;;;;;;;23.00;21.00;;;;;2.29;92.43;98553.22;4903809;28;103481;-73
2022/11/25 06:56:05;;;;;;;;;22.67;19.00;;;;;2.31;92.54;98553.88;4901866;28;102083;-73
2022/11/25 06:58:32;;;;;;;;;14.00;13.00;;;;;2.29;92.08;98549.69;4901643;28;101916;-73
2022/11/25 07:01:10;;;;;;;;;20.67;20.00;;;;;2.31;92.32;98556.56;4901114;28;101890;-72
2022/11/25 07:03:38;;;;;;;;;18.25;16.75;;;;;2.32;92.67;98555.56;4904914;28;103478;-72
2022/11/25 07:06:05;;;;;;;;;15.50;13.00;;;;;2.38;92.77;98565.66;4898674;28;101951;-72
2022/11/25 07:08:32;;;;;;;;;18.00;16.25;;;;;2.34;92.64;98550.09;4902132;28;101765;-72
2022/11/25 07:11:05;;;;;;;;;15.25;14.25;;;;;2.41;93.05;98565.34;4899044;28;103380;-74
2022/11/25 07:13:33;;;;;;;;;19.25;16.75;;;;;2.45;92.32;98576.53;4899679;28;103443;-74
2022/11/25 07:16:04;;;;;;;;;10.50;7.00;;;;;1.35;93.24;98382.03;4895109;28;101943;-73
2022/11/25 07:18:34;;;;;;;;;13.25;10.50;;;;;2.47;93.30;98561.25;4905957;28;101809;-75
2022/11/25 07:21:04;;;;;;;;;14.00;13.25;;;;;2.54;93.51;98575.63;4904127;28;101888;-71
2022/11/25 07:23:31;;;;;;;;;9.00;7.00;;;;;2.55;92.83;98569.31;4902815;28;103305;-74
2022/11/25 07:26:06;;;;;;;;;14.50;14.50;;;;;2.39;93.23;98547.78;4901762;28;101987;-76
2022/11/25 07:28:35;;;;;;;;;23.50;20.25;;;;;2.62;93.33;98571.22;4903504;28;101966;-72
2022/11/25 07:31:12;;;;;;;;;6.50;6.50;;;;;2.64;92.32;98579.09;4900040;28;102144;-71
2022/11/25 07:34:09;;;;;;;;;25.00;21.50;;;;;2.66;93.27;98577.94;4895086;28;109399;-72
2022/11/25 07:36:37;;;;;;;;;20.00;15.00;;;;;2.63;92.91;98580.06;4903696;28;101894;-72
2022/11/25 07:39:08;;;;;;;;;38.33;36.33;;;;;2.62;92.67;98581.91;4894095;28;101989;-72
2022/11/25 07:41:35;;;;;;;;;71.67;54.33;;;;;2.61;93.93;98579.41;4901957;28;102394;-72
2022/11/25 07:44:05;;;;;;;;;39.00;32.33;;;;;2.64;93.86;98581.75;4900832;28;103617;-72
2022/11/25 07:46:34;;;;;;;;;55.33;41.00;;;;;2.68;93.96;98578.63;4897881;28;102235;-74
2022/11/25 07:49:06;;;;;;;;;42.33;34.00;;;;;2.70;93.85;98579.31;4897279;28;103339;-72
2022/11/25 07:51:35;;;;;;;;;33.25;24.25;;;;;2.45;93.54;98542.69;4897764;28;102010;-73
2022/11/25 07:54:05;;;;;;;;;27.50;20.25;;;;;2.80;93.21;98589.91;4899809;28;104581;-73
2022/11/25 07:56:34;;;;;;;;;31.33;30.67;;;;;2.81;92.53;98585.41;4897078;28;102480;-71
2022/11/25 07:59:02;;;;;;;;;25.25;20.75;;;;;2.81;91.57;98591.59;4898782;28;101667;-72
2022/11/25 08:01:29;;;;;;;;;34.67;31.00;;;;;2.77;91.94;98589.38;4897219;28;101614;-72
2022/11/25 08:03:57;;;;;;;;;93.00;66.50;;;;;2.57;94.40;98586.84;4903236;28;103522;-76
2022/11/25 08:06:43;;;;;;;;;79.00;56.67;;;;;2.74;94.13;98605.72;4907835;28;101741;-72
2022/11/25 08:09:12;;;;;;;;;54.33;42.00;;;;;2.83;94.94;98600.31;4899392;28;101463;-72
2022/11/25 08:11:41;;;;;;;;;57.67;46.33;;;;;2.89;95.04;98605.03;4904391;28;103164;-72
2022/11/25 08:14:09;;;;;;;;;42.33;36.33;;;;;2.87;94.11;98595.50;4905951;28;104224;-74
2022/11/25 08:16:37;;;;;;;;;34.67;27.67;;;;;2.97;94.30;98601.59;4900000;28;101681;-72
2022/11/25 08:19:07;;;;;;;;;33.67;28.67;;;;;3.07;93.89;98605.00;4900032;28;102016;-72
2022/11/25 08:21:34;;;;;;;;;42.67;36.67;;;;;3.16;93.57;98601.41;4906011;28;101980;-72
2022/11/25 08:24:01;;;;;;;;;39.67;27.67;;;;;3.21;93.10;98604.47;4904168;28;104601;-72
2022/11/25 08:26:33;;;;;;;;;28.25;24.25;;;;;3.25;92.52;98595.16;4905289;28;101925;-72
2022/11/25 08:29:01;;;;;;;;;40.50;29.00;;;;;3.09;92.93;98565.63;4898915;28;102744;-72
2022/11/25 08:31:31;;;;;;;;;42.75;27.75;;;;;3.34;92.34;98604.06;4899469;28;101762;-72
2022/11/25 08:33:59;;;;;;;;;28.25;19.50;;;;;3.42;92.07;98612.16;4900337;28;103724;-72
2022/11/25 08:36:28;;;;;;;;;44.67;37.00;;;;;3.49;92.40;98602.50;4907852;28;101877;-72
2022/11/25 08:38:58;;;;;;;;;35.75;28.00;;;;;3.56;92.26;98617.75;4908417;28;102744;-72
2022/11/25 08:41:34;;;;;;;;;59.00;45.67;;;;;3.57;92.05;98613.25;4906184;28;101905;-72
2022/11/25 08:44:04;;;;;;;;;66.33;52.67;;;;;3.63;92.28;98607.28;4902412;28;107951;-72
2022/11/25 08:46:35;;;;;;;;;75.00;55.00;;;;;3.75;91.92;98611.38;4905828;28;102041;-72
2022/11/25 08:49:08;;;;;;;;;67.67;50.00;;;;;3.80;91.61;98601.03;4898854;28;102017;-72
2022/11/25 08:51:36;;;;;;;;;56.33;45.00;;;;;3.98;90.75;98611.66;4903112;28;101599;-72
2022/11/25 08:54:06;;;;;;;;;78.33;59.67;;;;;4.06;91.30;98622.41;4910336;28;102295;-72
2022/11/25 08:56:34;;;;;;;;;67.00;52.33;;;;;4.13;90.72;98618.09;4904649;28;101854;-73
2022/11/25 08:59:01;;;;;;;;;43.75;34.50;;;;;4.22;90.37;98625.19;4909236;28;101987;-72
2022/11/25 09:01:28;;;;;;;;;33.50;27.50;;;;;4.23;90.04;98618.00;4905857;28;106480;-72
2022/11/25 09:03:55;;;;;;;;;58.67;44.67;;;;;4.34;90.09;98625.72;4906896;28;107698;-72
2022/11/25 09:06:25;;;;;;;;;53.00;40.33;;;;;4.39;89.81;98623.41;4902528;28;101928;-72
2022/11/25 09:09:00;;;;;;;;;69.00;54.00;;;;;4.42;90.73;98631.94;4904398;28;101753;-72
2022/11/25 09:11:27;;;;;;;;;50.67;37.67;;;;;4.49;89.64;98627.63;4899669;28;102287;-72
2022/11/25 09:13:54;;;;;;;;;54.00;44.33;;;;;4.58;89.89;98630.34;4907064;28;108200;-72
2022/11/25 09:16:22;;;;;;;;;73.33;54.33;;;;;4.70;89.67;98623.66;4899799;28;101927;-72
2022/11/25 09:18:52;;;;;;;;;61.67;48.67;;;;;4.77;89.23;98622.03;4902039;28;101871;-72
2022/11/25 09:21:23;;;;;;;;;0.00;0.00;;;;;4.89;89.18;98628.72;4903591;28;102271;-72
2022/11/25 09:23:52;;;;;;;;;56.33;46.00;;;;;4.98;89.21;98619.72;4901969;28;104152;-72
2022/11/25 09:26:34;;;;;;;;;33.00;30.00;;;;;5.02;88.94;98621.06;4903509;28;101631;-72
2022/11/25 09:29:02;;;;;;;;;42.25;33.75;;;;;5.10;88.16;98626.41;4903630;28;101979;-71
2022/11/25 09:31:29;;;;;;;;;61.75;45.75;;;;;5.10;88.67;98622.91;4902558;28;101781;-72
2022/11/25 09:33:56;;;;;;;;;48.50;38.75;;;;;4.99;88.83;98589.25;4905951;28;103506;-71
2022/11/25 09:36:23;;;;;;;;;56.33;44.00;;;;;5.29;88.51;98628.78;4900378;28;102037;-72
2022/11/25 09:38:50;;;;;;;;;57.00;47.00;;;;;5.36;88.02;98621.72;4905750;28;101551;-71
2022/11/25 09:47:37;;;;;;;;;50.67;41.00;;;;;5.50;88.35;98603.28;4900909;28;101738;-71
2022/11/25 09:50:34;;;;;;;;;46.00;36.00;;;;;5.67;88.24;98623.75;4901872;28;101828;-72
2022/11/25 09:53:25;;;;;;;;;27.00;23.00;;;;;5.76;87.41;98622.72;4906450;28;101935;-72
2022/11/25 09:56:00;;;;;;;;;30.50;26.00;;;;;5.81;87.17;98623.88;4904182;28;103519;-72
2022/11/25 09:58:43;;;;;;;;;36.00;28.50;;;;;5.75;87.74;98600.44;4904314;28;101925;-72
2022/11/25 10:01:19;;;;;;;;;29.50;24.00;;;;;5.89;86.90;98625.75;4899280;28;101789;-72
2022/11/25 10:04:12;;;;;;;;;26.75;22.25;;;;;5.97;86.67;98622.22;4898926;28;101729;-72
2022/11/25 10:06:48;;;;;;;;;20.75;17.00;;;;;6.00;86.54;98621.84;4899940;28;108115;-72
2022/11/25 10:09:24;;;;;;;;;30.25;26.00;;;;;6.01;86.86;98618.16;4901894;28;102245;-72
2022/11/25 10:11:57;;;;;;;;;9.25;8.00;;;;;6.03;87.09;98627.75;4895209;28;101838;-72
2022/11/25 10:14:47;;;;;;;;;23.00;21.00;;;;;6.06;86.53;98624.69;4902497;28;101787;-72
2022/11/25 10:17:37;;;;;;;;;12.75;11.00;;;;;6.12;86.51;98615.13;4903216;28;107816;-72
2022/11/25 10:20:22;;;;;;;;;19.00;13.75;;;;;6.21;86.92;98631.00;4902280;28;102535;-73
2022/11/25 10:23:20;;;;;;;;;25.00;24.00;;;;;6.27;86.74;98627.66;4904232;28;101496;-73
2022/11/25 10:26:01;;;;;;;;;21.00;16.75;;;;;6.27;85.78;98622.28;4905895;28;101599;-73
2022/11/25 10:28:33;;;;;;;;;16.50;14.50;;;;;6.29;85.21;98622.13;4898171;28;107298;-72
2022/11/25 10:31:06;;;;;;;;;23.25;20.00;;;;;6.32;86.12;98624.44;4901121;28;101584;-72
2022/11/25 10:33:39;;;;;;;;;41.00;33.75;;;;;6.21;85.79;98620.28;4895903;28;101556;-73
2022/11/25 10:36:09;;;;;;;;;26.25;23.75;;;;;6.29;86.88;98627.50;4904280;28;101990;-73
2022/11/25 10:38:44;;;;;;;;;22.00;18.50;;;;;6.20;86.24;98615.94;4903420;28;103329;-74
2022/11/25 10:41:16;;;;;;;;;21.75;17.25;;;;;6.26;86.24;98625.13;4903332;28;102499;-73
2022/11/25 10:43:46;;;;;;;;;31.25;26.00;;;;;6.26;87.16;98623.28;4901556;28;104719;-74
2022/11/25 10:46:42;;;;;;;;;16.25;15.00;;;;;6.31;87.41;98620.06;4905311;28;101896;-74
2022/11/25 10:49:41;;;;;;;;;19.00;14.25;;;;;6.37;87.69;98623.94;4896325;28;109462;-74
2022/11/25 10:52:11;;;;;;;;;18.25;14.75;;;;;6.42;87.31;98626.94;4899002;28;101712;-74
2022/11/25 10:54:38;;;;;;;;;19.00;13.25;;;;;6.47;86.41;98625.41;4896938;28;101608;-74
2022/11/25 10:57:19;;;;;;;;;16.00;12.75;;;;;6.49;86.72;98627.91;4903204;28;102597;-74
2022/11/25 10:59:57;;;;;;;;;25.75;20.25;;;;;6.38;86.37;98620.25;4904335;28;103599;-74
2022/11/25 11:02:36;;;;;;;;;15.25;13.25;;;;;6.36;86.72;98619.56;4899292;28;101855;-74
2022/11/25 11:05:28;;;;;;;;;13.00;12.00;;;;;6.42;86.67;98633.13;4901033;28;101693;-74
2022/11/25 11:08:21;;;;;;;;;14.75;13.50;;;;;6.42;87.24;98633.13;4893481;28;101850;-75
2022/11/25 11:11:08;;;;;;;;;13.00;10.50;;;;;6.40;87.88;98621.72;4890756;28;108042;-74
2022/11/25 11:13:35;;;;;;;;;18.50;12.75;;;;;6.40;87.37;98635.16;4899355;28;101838;-73
2022/11/25 11:16:02;;;;;;;;;16.00;11.50;;;;;6.42;87.00;98632.31;4899054;28;101599;-73
2022/11/25 11:18:35;;;;;;;;;14.00;11.75;;;;;6.48;87.54;98626.25;4898619;28;101846;-73
2022/11/25 11:21:06;;;;;;;;;12.75;12.00;;;;;6.19;86.71;98581.19;4898877;28;103435;-73
2022/11/25 11:23:50;;;;;;;;;11.00;10.75;;;;;6.45;87.09;98632.78;4900802;28;101875;-73
2022/11/25 11:26:25;;;;;;;;;13.75;11.00;;;;;6.50;87.87;98632.25;4903751;28;101698;-73
2022/11/25 11:29:20;;;;;;;;;16.00;13.75;;;;;6.52;87.46;98624.88;4905370;28;101933;-74
2022/11/25 11:32:18;;;;;;;;;18.75;14.00;;;;;6.54;86.43;98630.91;4902880;28;107964;-74
2022/11/25 11:35:04;;;;;;;;;16.00;14.25;;;;;6.54;86.58;98625.53;4905620;28;101619;-73
2022/11/25 11:37:58;;;;;;;;;16.50;14.75;;;;;6.62;86.52;98629.00;4896722;28;101541;-73
2022/11/25 11:40:36;;;;;;;;;18.25;15.75;;;;;6.59;84.74;98639.28;4900360;28;101744;-74
2022/11/25 11:43:35;;;;;;;;;10.00;8.00;;;;;6.64;85.79;98636.91;4902520;28;108005;-75
2022/11/25 11:46:24;;;;;;;;;12.00;9.00;;;;;6.65;85.38;98631.38;4877976;28;102580;-75
2022/11/25 11:49:01;;;;;;;;;29.50;23.00;;;;;6.49;84.65;98630.56;4906473;28;101787;-74
2022/11/25 11:51:34;;;;;;;;;20.50;13.00;;;;;6.60;85.88;98635.59;4908179;28;101674;-75
2022/11/25 11:54:11;;;;;;;;;14.50;12.50;;;;;6.64;85.92;98628.84;4904060;28;107783;-75
2022/11/25 11:57:22;;;;;;;;;13.00;11.50;;;;;6.71;85.98;98637.88;4906270;28;101803;-74